Time;durP1;ratioP1;P1;durP2;ratioP2;P2;SDS_P1;SDS_P2;PMS_P1;PMS_P2;Temp;Humidity;BMP_temperature;BMP_pressure;BME280_temperature;BME280_humidity;BME280_pressure;Samples;Min_cycle;Max_cycle;Signal;HPM_P1;HPM_P2
2023/06/29 00:01:55;;;;;;;2.97;2.13;;;;;;;18.10;46.05;99208.31;5126800;28;20056;-70
2023/06/29 00:04:25;;;;;;;3.33;2.17;;;;;;;18.20;45.83;99203.84;5125721;28;20053;-70
2023/06/29 00:06:54;;;;;;;3.35;2.40;;;;;;;18.12;46.11;99200.97;5126840;28;20132;-70
2023/06/29 00:09:22;;;;;;;4.50;2.40;;;;;;;18.10;45.81;99199.41;5126764;28;20211;-70
2023/06/29 00:11:48;;;;;;;3.08;2.03;;;;;;;18.06;45.95;99200.69;5126731;28;20043;-70
2023/06/29 00:14:15;;;;;;;4.90;2.60;;;;;;;18.03;46.09;99203.63;5126722;28;20069;-70
2023/06/29 00:16:42;;;;;;;4.07;2.55;;;;;;;18.02;46.33;99197.41;5126628;28;20051;-70
2023/06/29 00:19:11;;;;;;;7.40;3.05;;;;;;;17.97;46.51;99190.75;5126346;28;20072;-70
2023/06/29 00:21:38;;;;;;;4.00;2.75;;;;;;;17.93;47.17;99199.09;5126839;28;20041;-70
2023/06/29 00:24:10;;;;;;;3.88;2.67;;;;;;;17.93;47.05;99195.56;5126552;28;20051;-70
2023/06/29 00:26:38;;;;;;;3.95;2.85;;;;;;;17.94;46.67;99197.25;5126841;28;20047;-70
2023/06/29 00:29:04;;;;;;;5.93;3.40;;;;;;;17.99;46.54;99200.38;5126221;28;20059;-70
2023/06/29 00:31:31;;;;;;;4.35;3.33;;;;;;;17.98;46.59;99192.47;5126219;28;20109;-70
2023/06/29 00:33:58;;;;;;;4.63;2.65;;;;;;;17.88;46.81;99198.63;5126458;28;20097;-70
2023/06/29 00:36:24;;;;;;;4.43;2.50;;;;;;;17.84;46.71;99202.56;5125280;28;20296;-70
2023/06/29 00:38:51;;;;;;;6.00;2.55;;;;;;;17.78;46.68;99210.28;5126651;28;20043;-70
2023/06/29 00:41:19;;;;;;;5.78;3.05;;;;;;;17.76;46.91;99198.84;5126004;28;20292;-70
2023/06/29 00:43:46;;;;;;;4.07;2.50;;;;;;;17.77;47.12;99211.28;5125049;28;20043;-70
2023/06/29 00:46:17;;;;;;;3.63;2.60;;;;;;;17.83;46.96;99203.56;5126163;28;20106;-70
2023/06/29 00:48:44;;;;;;;4.75;2.30;;;;;;;17.79;46.88;99207.47;5126296;28;20036;-70
2023/06/29 00:51:11;;;;;;;5.78;2.60;;;;;;;17.72;47.17;99205.47;5126272;28;20115;-70
2023/06/29 00:53:38;;;;;;;3.42;2.38;;;;;;;17.68;47.30;99212.06;5126244;28;20065;-70
2023/06/29 00:56:05;;;;;;;3.97;2.45;;;;;;;17.64;47.79;99214.19;5126472;28;20173;-70
2023/06/29 00:58:34;;;;;;;6.90;2.78;;;;;;;17.67;47.62;99210.38;5125886;28;20058;-70
2023/06/29 01:01:00;;;;;;;8.10;3.03;;;;;;;17.69;47.77;99216.47;5125795;28;20089;-70
2023/06/29 01:03:30;;;;;;;4.97;2.53;;;;;;;17.62;47.99;99211.63;5126498;28;20377;-70
2023/06/29 01:06:00;;;;;;;3.90;2.40;;;;;;;17.66;47.83;99206.00;5126691;28;20257;-69
2023/06/29 01:08:34;;;;;;;4.70;2.17;;;;;;;17.65;47.75;99210.50;5126017;28;20051;-70
2023/06/29 01:11:03;;;;;;;5.10;2.30;;;;;;;17.60;47.60;99212.72;5125793;28;20321;-70
2023/06/29 01:13:33;;;;;;;8.27;3.58;;;;;;;17.59;47.69;99208.31;5126027;28;20055;-70
2023/06/29 01:16:02;;;;;;;3.78;2.20;;;;;;;17.56;47.67;99212.13;5125732;28;20039;-70
2023/06/29 01:18:31;;;;;;;8.38;2.45;;;;;;;17.59;47.50;99214.53;5126590;28;20057;-70
2023/06/29 01:20:59;;;;;;;3.90;2.55;;;;;;;17.57;48.09;99216.50;5126285;28;20102;-69
2023/06/29 01:23:29;;;;;;;4.60;2.38;;;;;;;17.54;47.96;99208.72;5126253;28;20043;-70
2023/06/29 01:25:57;;;;;;;5.82;2.58;;;;;;;17.53;48.03;99208.84;5125671;28;20039;-70
2023/06/29 01:28:24;;;;;;;5.07;2.10;;;;;;;17.56;47.56;99209.44;5126195;28;20039;-70
2023/06/29 01:30:51;;;;;;;3.28;2.20;;;;;;;17.58;47.12;99210.16;5125827;28;20044;-70
2023/06/29 01:33:20;;;;;;;3.88;2.22;;;;;;;17.54;47.38;99214.09;5124619;28;20246;-70
2023/06/29 01:35:47;;;;;;;4.18;2.50;;;;;;;17.51;47.61;99211.66;5125564;28;20040;-70
2023/06/29 01:38:21;;;;;;;2.92;2.40;;;;;;;17.12;47.53;99150.78;5126115;28;20043;-70
2023/06/29 01:40:50;;;;;;;4.78;2.50;;;;;;;17.54;47.66;99211.41;5125796;28;20051;-70
2023/06/29 01:43:20;;;;;;;3.78;2.40;;;;;;;17.50;47.98;99206.44;5125713;28;20039;-70
2023/06/29 01:45:47;;;;;;;4.80;2.72;;;;;;;17.49;47.94;99210.94;5126047;28;20183;-70
2023/06/29 01:48:15;;;;;;;5.95;2.15;;;;;;;17.54;47.73;99207.88;5125778;28;20047;-70
2023/06/29 01:50:42;;;;;;;6.25;2.20;;;;;;;17.55;47.47;99215.78;5125440;28;20180;-70
2023/06/29 01:53:09;;;;;;;3.78;2.38;;;;;;;17.52;47.67;99212.53;5125725;28;20039;-70
2023/06/29 01:55:36;;;;;;;3.60;2.33;;;;;;;17.43;47.37;99210.63;5124549;28;20051;-69
2023/06/29 01:58:03;;;;;;;4.47;2.30;;;;;;;17.50;47.35;99207.28;5128943;28;20050;-70
2023/06/29 02:00:31;;;;;;;4.22;2.15;;;;;;;17.42;47.30;99216.97;5128988;28;20043;-70
2023/06/29 02:02:58;;;;;;;4.63;2.42;;;;;;;17.30;48.57;99214.34;5128908;28;20039;-70
2023/06/29 02:05:24;;;;;;;4.25;2.30;;;;;;;17.31;48.46;99208.03;5128852;28;20288;-70
2023/06/29 02:07:51;;;;;;;3.92;2.08;;;;;;;17.34;48.58;99216.78;5128838;28;20039;-70
2023/06/29 02:10:18;;;;;;;4.82;2.92;;;;;;;17.34;48.37;99214.94;5129442;27;20081;-70
2023/06/29 02:12:45;;;;;;;3.63;2.50;;;;;;;17.52;47.68;99209.84;5129061;28;20085;-70
2023/06/29 02:15:12;;;;;;;3.67;2.38;;;;;;;17.54;47.10;99207.88;5128700;28;20284;-70
2023/06/29 02:17:40;;;;;;;3.42;2.42;;;;;;;17.41;47.66;99216.13;5128648;28;20311;-70
2023/06/29 02:20:09;;;;;;;3.28;2.30;;;;;;;17.44;47.32;99215.00;5128851;27;20050;-70
2023/06/29 02:22:35;;;;;;;4.90;2.83;;;;;;;17.10;47.34;99150.06;5129320;28;20221;-69
2023/06/29 02:25:02;;;;;;;3.42;2.30;;;;;;;17.36;47.78;99215.66;5128784;28;20047;-70
2023/06/29 02:27:29;;;;;;;4.65;2.42;;;;;;;17.42;47.71;99220.50;5128761;28;20081;-70
2023/06/29 02:29:55;;;;;;;4.57;2.35;;;;;;;17.28;47.83;99194.03;5129237;28;20040;-70
2023/06/29 02:32:22;;;;;;;3.47;2.35;;;;;;;17.40;47.89;99216.25;5128143;28;20104;-70
2023/06/29 02:34:50;;;;;;;3.50;2.35;;;;;;;17.28;48.34;99213.63;5128591;28;20062;-70
2023/06/29 02:37:17;;;;;;;5.40;3.17;;;;;;;17.23;48.93;99215.84;5128552;28;20096;-70
2023/06/29 02:39:43;;;;;;;3.35;2.47;;;;;;;17.21;49.10;99220.50;5128441;28;20047;-70
2023/06/29 02:42:10;;;;;;;3.63;2.38;;;;;;;17.16;49.04;99217.31;5128684;28;20211;-70
2023/06/29 02:44:37;;;;;;;3.85;2.47;;;;;;;17.14;49.26;99216.59;5128419;28;20044;-70
2023/06/29 02:47:04;;;;;;;3.75;2.28;;;;;;;17.08;49.61;99205.56;5128075;28;20207;-70
2023/06/29 02:49:30;;;;;;;3.60;2.60;;;;;;;17.15;49.13;99215.63;5128077;28;20248;-70
2023/06/29 02:51:59;;;;;;;4.18;2.47;;;;;;;17.12;49.38;99212.34;5128275;28;20040;-69
2023/06/29 02:54:25;;;;;;;7.45;3.00;;;;;;;17.08;49.22;99214.44;5128503;28;20325;-70
2023/06/29 02:56:52;;;;;;;4.78;2.30;;;;;;;16.99;49.31;99199.16;5128180;28;20059;-70
2023/06/29 02:59:19;;;;;;;4.25;2.88;;;;;;;17.16;48.84;99219.16;5127824;28;20040;-70
2023/06/29 03:01:45;;;;;;;4.75;2.72;;;;;;;17.15;48.79;99217.44;5127965;28;20043;-70
2023/06/29 03:04:12;;;;;;;4.72;2.65;;;;;;;17.25;48.11;99219.25;5128050;28;20096;-70
2023/06/29 03:06:39;;;;;;;4.95;2.67;;;;;;;17.21;48.30;99227.69;5127687;28;20047;-70
2023/06/29 03:09:07;;;;;;;2.88;2.20;;;;;;;17.19;48.49;99226.94;5128103;28;20088;-70
2023/06/29 03:11:33;;;;;;;4.25;2.55;;;;;;;17.15;48.49;99220.13;5126736;28;20048;-69
2023/06/29 03:14:00;;;;;;;5.32;2.65;;;;;;;17.20;48.51;99226.81;5126741;28;20039;-70
2023/06/29 03:16:27;;;;;;;3.95;2.25;;;;;;;17.19;48.89;99226.94;5127779;28;20043;-70
2023/06/29 03:18:53;;;;;;;5.28;2.85;;;;;;;17.23;48.72;99226.56;5127721;28;20051;-70
2023/06/29 03:21:20;;;;;;;3.20;2.28;;;;;;;17.19;48.51;99229.59;5127665;28;20056;-70
2023/06/29 03:23:48;;;;;;;3.83;2.30;;;;;;;17.14;48.89;99221.09;5127540;27;20253;-70
2023/06/29 03:26:16;;;;;;;4.00;2.47;;;;;;;17.13;48.87;99225.63;5127307;28;20062;-70
2023/06/29 03:28:43;;;;;;;5.43;2.50;;;;;;;17.02;49.54;99227.50;5127509;28;20039;-69
2023/06/29 03:31:09;;;;;;;3.70;2.78;;;;;;;17.00;49.55;99223.13;5127005;28;20050;-70
2023/06/29 03:33:36;;;;;;;7.38;3.28;;;;;;;17.01;49.18;99229.31;5127453;28;20085;-69
2023/06/29 03:36:04;;;;;;;3.28;2.38;;;;;;;16.99;49.31;99225.91;5126316;28;20081;-70
2023/06/29 03:38:31;;;;;;;4.88;3.30;;;;;;;16.82;49.74;99234.50;5127641;28;20097;-70
2023/06/29 03:40:58;;;;;;;4.25;2.60;;;;;;;16.82;49.69;99226.47;5127498;28;20184;-69
2023/06/29 03:43:26;;;;;;;5.05;2.85;;;;;;;16.83;49.98;99223.66;5127390;28;20054;-70
2023/06/29 03:45:52;;;;;;;5.50;2.78;;;;;;;16.89;49.60;99231.19;5127080;28;20043;-70
2023/06/29 03:48:20;;;;;;;5.00;2.53;;;;;;;16.93;49.57;99229.13;5127174;28;20063;-70
2023/06/29 03:50:47;;;;;;;3.97;2.67;;;;;;;16.88;49.73;99221.47;5127098;28;20040;-70
2023/06/29 03:53:13;;;;;;;4.40;2.70;;;;;;;16.83;50.05;99229.03;5127085;28;20058;-70
2023/06/29 03:55:40;;;;;;;3.22;2.47;;;;;;;16.89;49.92;99230.34;5127058;28;20059;-70
2023/06/29 03:58:07;;;;;;;4.68;2.42;;;;;;;16.85;50.67;99234.25;5126991;28;20089;-70
2023/06/29 04:00:35;;;;;;;3.45;2.45;;;;;;;16.90;50.40;99234.72;5126639;28;20040;-69
2023/06/29 04:03:02;;;;;;;3.70;2.25;;;;;;;16.90;50.41;99232.03;5126550;28;20043;-69
2023/06/29 04:05:28;;;;;;;3.70;2.72;;;;;;;16.88;50.36;99234.84;5126847;28;20050;-70
2023/06/29 04:07:55;;;;;;;5.35;2.95;;;;;;;16.95;50.78;99241.38;5126798;28;20088;-70
2023/06/29 04:10:22;;;;;;;5.78;2.55;;;;;;;16.93;50.46;99235.31;5126616;28;20097;-70
2023/06/29 04:12:48;;;;;;;3.53;2.30;;;;;;;17.08;49.76;99235.84;5126598;28;20280;-69
2023/06/29 04:15:15;;;;;;;3.28;2.17;;;;;;;16.97;49.63;99209.13;5126669;28;20039;-69
2023/06/29 04:17:43;;;;;;;5.28;2.88;;;;;;;17.17;49.48;99244.94;5126692;28;20062;-70
2023/06/29 04:20:11;;;;;;;4.28;2.75;;;;;;;17.16;49.74;99248.59;5125034;28;20085;-70
2023/06/29 04:22:38;;;;;;;4.28;2.92;;;;;;;17.09;49.99;99240.25;5126552;28;20039;-69
2023/06/29 04:25:06;;;;;;;3.50;2.60;;;;;;;17.10;49.57;99238.41;5126773;28;20047;-69
2023/06/29 04:27:34;;;;;;;4.15;2.80;;;;;;;17.13;49.69;99244.34;5126549;28;20100;-70
2023/06/29 04:30:00;;;;;;;5.03;2.97;;;;;;;17.20;49.41;99248.25;5126491;28;20069;-70
2023/06/29 04:32:27;;;;;;;4.63;2.95;;;;;;;16.55;49.40;99181.41;5125911;28;20063;-70
2023/06/29 04:34:55;;;;;;;7.85;3.35;;;;;;;17.18;49.93;99252.00;5126122;28;20051;-70
2023/06/29 04:37:22;;;;;;;3.67;2.60;;;;;;;17.27;49.59;99248.59;5126551;28;20046;-70
2023/06/29 04:39:48;;;;;;;3.45;2.50;;;;;;;17.31;49.90;99250.88;5126243;28;20311;-70
2023/06/29 04:42:17;;;;;;;6.95;2.50;;;;;;;17.23;49.77;99225.72;5126431;28;20208;-69
2023/06/29 04:44:44;;;;;;;4.13;2.75;;;;;;;17.37;49.79;99246.81;5126275;28;20040;-69
2023/06/29 04:47:11;;;;;;;3.67;2.35;;;;;;;17.32;49.73;99243.69;5125176;28;20046;-70
2023/06/29 04:49:39;;;;;;;4.57;2.63;;;;;;;17.39;49.52;99238.66;5126034;28;20051;-70
2023/06/29 04:52:09;;;;;;;4.30;2.58;;;;;;;17.41;49.83;99245.59;5125884;28;20106;-70
2023/06/29 04:54:36;;;;;;;5.47;3.00;;;;;;;17.48;49.81;99241.41;5126460;28;20043;-70
2023/06/29 04:57:03;;;;;;;4.35;2.67;;;;;;;17.48;49.74;99237.88;5125074;28;20212;-70
2023/06/29 04:59:30;;;;;;;6.10;3.05;;;;;;;17.45;49.62;99233.63;5125095;28;20211;-70
2023/06/29 05:01:57;;;;;;;4.82;2.97;;;;;;;17.51;50.00;99245.66;5126437;28;20040;-70
2023/06/29 05:04:23;;;;;;;4.50;2.65;;;;;;;17.60;49.31;99243.03;5126043;28;20051;-70
2023/06/29 05:06:50;;;;;;;3.33;2.58;;;;;;;17.70;49.00;99239.59;5126075;28;20043;-70
2023/06/29 05:09:19;;;;;;;4.93;3.05;;;;;;;17.65;49.64;99241.81;5125825;28;20307;-70
2023/06/29 05:11:46;;;;;;;4.20;2.65;;;;;;;17.65;49.53;99242.66;5126129;28;20106;-70
2023/06/29 05:14:12;;;;;;;8.00;3.33;;;;;;;17.67;49.76;99235.34;5125750;28;20040;-70
2023/06/29 05:16:39;;;;;;;4.03;2.90;;;;;;;17.70;50.12;99242.28;5126108;28;20039;-70
2023/06/29 05:19:06;;;;;;;3.28;2.25;;;;;;;17.76;49.45;99244.41;5126009;28;20059;-70
2023/06/29 05:21:32;;;;;;;5.20;2.75;;;;;;;17.73;49.98;99234.81;5125879;28;20050;-70
2023/06/29 05:23:59;;;;;;;3.17;2.30;;;;;;;17.78;50.03;99242.47;5125414;28;20204;-70
2023/06/29 05:26:27;;;;;;;3.20;2.58;;;;;;;17.80;49.97;99246.72;5125827;28;20059;-70
2023/06/29 05:28:54;;;;;;;6.65;2.50;;;;;;;17.83;50.04;99246.44;5125591;28;20043;-70
2023/06/29 05:31:21;;;;;;;4.00;2.55;;;;;;;17.86;49.84;99242.66;5126114;28;20092;-70
2023/06/29 05:33:47;;;;;;;4.07;2.50;;;;;;;17.88;49.38;99246.03;5130051;28;20093;-70
2023/06/29 05:36:14;;;;;;;6.50;3.08;;;;;;;17.91;49.35;99241.25;5129912;28;20139;-70
2023/06/29 05:38:41;;;;;;;4.03;2.53;;;;;;;17.98;49.66;99244.25;5128519;28;20077;-70
2023/06/29 05:41:07;;;;;;;5.93;3.28;;;;;;;18.05;48.81;99237.38;5129123;28;20051;-70
2023/06/29 05:43:35;;;;;;;4.00;2.47;;;;;;;18.07;48.78;99242.59;5129508;27;20085;-70
2023/06/29 05:46:02;;;;;;;5.25;2.75;;;;;;;18.07;49.11;99243.44;5129380;28;20069;-70
2023/06/29 05:48:29;;;;;;;4.35;2.88;;;;;;;18.10;48.94;99239.66;5129478;28;20112;-69
2023/06/29 05:50:56;;;;;;;3.30;2.30;;;;;;;18.09;48.82;99241.47;5129140;28;20291;-70
2023/06/29 05:53:22;;;;;;;4.82;2.80;;;;;;;18.13;48.58;99242.91;5129037;28;20092;-70
2023/06/29 05:55:49;;;;;;;6.50;3.53;;;;;;;18.24;48.68;99236.59;5129402;28;20256;-70
2023/06/29 05:58:16;;;;;;;6.35;2.67;;;;;;;18.24;48.91;99244.66;5128679;28;20036;-70
2023/06/29 06:00:44;;;;;;;4.90;2.50;;;;;;;18.27;49.18;99239.00;5129506;28;20089;-70
2023/06/29 06:03:11;;;;;;;3.50;2.80;;;;;;;18.14;49.05;99216.94;5129457;28;20063;-70
2023/06/29 06:05:38;;;;;;;5.25;3.00;;;;;;;18.33;49.01;99232.25;5127888;28;20036;-70
2023/06/29 06:08:05;;;;;;;4.65;3.10;;;;;;;18.38;49.14;99230.00;5129085;28;20226;-70
2023/06/29 06:10:32;;;;;;;3.97;2.90;;;;;;;18.45;49.25;99236.53;5129330;27;20112;-70
2023/06/29 06:12:59;;;;;;;5.00;2.67;;;;;;;18.48;49.13;99234.41;5129036;28;20039;-70
2023/06/29 06:15:25;;;;;;;6.00;3.03;;;;;;;18.51;48.46;99223.41;5128975;28;20039;-70
2023/06/29 06:17:53;;;;;;;4.20;3.08;;;;;;;18.55;48.39;99222.16;5128905;28;20299;-70
2023/06/29 06:20:20;;;;;;;3.78;2.88;;;;;;;18.56;48.56;99229.22;5129090;28;20044;-70
2023/06/29 06:22:47;;;;;;;4.72;2.90;;;;;;;18.59;48.66;99228.97;5128773;28;20287;-69
2023/06/29 06:25:17;;;;;;;3.70;2.50;;;;;;;18.65;48.52;99235.59;5128959;28;20055;-70
2023/06/29 06:27:44;;;;;;;4.47;2.50;;;;;;;18.63;48.58;99226.84;5128533;27;20043;-70
2023/06/29 06:30:11;;;;;;;3.97;2.78;;;;;;;18.07;48.92;99127.28;5127435;28;20322;-70
2023/06/29 06:32:39;;;;;;;5.75;3.00;;;;;;;18.61;48.27;99204.66;5128146;28;20039;-70
2023/06/29 06:35:09;;;;;;;4.50;2.40;;;;;;;18.79;48.58;99226.31;5127964;28;20043;-70
2023/06/29 06:37:37;;;;;;;3.92;2.83;;;;;;;18.83;48.30;99228.56;5128525;28;20275;-70
2023/06/29 06:40:07;;;;;;;3.65;2.22;;;;;;;18.84;48.57;99226.72;5128492;28;20051;-70
2023/06/29 06:42:34;;;;;;;5.10;2.75;;;;;;;18.90;48.29;99228.84;5128097;28;20069;-70
2023/06/29 06:45:03;;;;;;;4.53;2.50;;;;;;;18.99;47.67;99221.78;5128342;28;20089;-70
2023/06/29 06:47:30;;;;;;;4.25;2.22;;;;;;;19.03;47.53;99221.38;5128134;28;20082;-70
2023/06/29 06:49:57;;;;;;;5.10;2.55;;;;;;;19.07;48.20;99222.78;5128514;28;20039;-71
2023/06/29 06:52:25;;;;;;;4.07;2.25;;;;;;;19.08;47.84;99223.63;5128269;28;20044;-70
2023/06/29 06:54:52;;;;;;;3.92;2.30;;;;;;;19.18;47.56;99227.16;5127919;28;20052;-70
2023/06/29 06:57:19;;;;;;;4.07;2.90;;;;;;;19.22;47.28;99225.88;5128115;28;20050;-70
2023/06/29 06:59:46;;;;;;;4.32;2.50;;;;;;;19.31;47.30;99225.03;5127787;28;20040;-70
2023/06/29 07:02:13;;;;;;;20.70;3.72;;;;;;;19.35;47.98;99218.38;5128027;28;20223;-70
2023/06/29 07:04:40;;;;;;;4.40;2.60;;;;;;;19.46;47.06;99226.31;5127963;28;20039;-70
2023/06/29 07:07:08;;;;;;;5.63;2.63;;;;;;;19.57;46.67;99227.16;5127971;28;20188;-70
2023/06/29 07:09:36;;;;;;;4.65;2.47;;;;;;;19.64;46.77;99215.66;5127552;28;20051;-70
2023/06/29 07:12:03;;;;;;;5.22;2.67;;;;;;;19.72;45.21;99220.31;5127490;28;20047;-70
2023/06/29 07:14:31;;;;;;;5.22;2.65;;;;;;;19.83;44.98;99215.63;5127437;28;20040;-70
2023/06/29 07:16:58;;;;;;;5.43;2.25;;;;;;;20.00;45.05;99215.88;5128082;28;20058;-70
2023/06/29 07:19:26;;;;;;;4.70;2.88;;;;;;;20.20;44.77;99214.78;5127842;28;20283;-70
2023/06/29 07:21:53;;;;;;;4.32;2.60;;;;;;;20.27;45.54;99207.00;5127667;28;20283;-70
2023/06/29 07:24:20;;;;;;;4.13;2.65;;;;;;;20.46;45.31;99210.41;5126503;28;20040;-70
2023/06/29 07:26:49;;;;;;;6.18;3.38;;;;;;;20.71;44.35;99203.44;5127085;27;20036;-70
2023/06/29 07:29:16;;;;;;;4.78;3.05;;;;;;;20.87;44.25;99201.91;5128108;28;20233;-70
2023/06/29 07:31:42;;;;;;;5.57;2.80;;;;;;;21.03;44.14;99199.41;5126992;28;20315;-71
2023/06/29 07:34:09;;;;;;;5.38;2.88;;;;;;;21.20;43.79;99193.16;5127648;28;20044;-70
2023/06/29 07:36:37;;;;;;;4.72;3.17;;;;;;;21.37;43.07;99259.69;5126977;27;20035;-70
2023/06/29 07:39:04;;;;;;;5.07;2.95;;;;;;;21.56;43.86;99198.47;5127340;28;20051;-70
2023/06/29 07:41:32;;;;;;;5.03;2.97;;;;;;;21.18;41.82;99121.56;5127341;28;20303;-70
2023/06/29 07:44:01;;;;;;;4.07;2.53;;;;;;;21.63;41.11;99192.28;5127265;28;20039;-70
2023/06/29 07:46:28;;;;;;;3.97;2.28;;;;;;;21.74;42.26;99197.41;5126906;28;20058;-70
2023/06/29 07:48:54;;;;;;;3.80;2.40;;;;;;;21.70;41.76;99211.38;5127077;28;20043;-70
2023/06/29 07:51:21;;;;;;;3.50;2.17;;;;;;;21.78;40.97;99208.72;5127050;28;20181;-70
2023/06/29 07:53:50;;;;;;;5.40;2.50;;;;;;;21.64;40.02;99147.28;5126008;27;20295;-70
2023/06/29 07:56:16;;;;;;;4.03;2.20;;;;;;;21.93;40.54;99196.38;5127166;28;20222;-70
2023/06/29 07:58:43;;;;;;;4.05;2.50;;;;;;;22.28;40.57;99194.50;5126639;28;20035;-70
2023/06/29 08:01:11;;;;;;;5.97;3.10;;;;;;;22.65;39.52;99189.63;5126004;28;20057;-71
2023/06/29 08:03:38;;;;;;;4.07;2.80;;;;;;;22.84;39.91;99184.94;5126413;28;20093;-70
2023/06/29 08:06:05;;;;;;;6.47;3.53;;;;;;;23.09;38.43;99186.63;5127000;28;20039;-70
2023/06/29 08:08:31;;;;;;;7.28;3.45;;;;;;;23.16;38.74;99186.81;5126633;28;20051;-70
2023/06/29 08:10:59;;;;;;;3.70;2.30;;;;;;;23.07;38.69;99188.66;5126681;28;20054;-70
2023/06/29 08:13:26;;;;;;;3.53;2.33;;;;;;;22.66;38.73;99183.22;5126978;28;20040;-70
2023/06/29 08:15:53;;;;;;;3.75;2.30;;;;;;;23.08;38.12;99179.53;5126772;28;20062;-71
2023/06/29 08:18:22;;;;;;;3.47;2.08;;;;;;;23.27;37.44;99187.34;5126925;28;20050;-70
2023/06/29 08:20:49;;;;;;;5.00;2.17;;;;;;;23.29;37.03;99179.06;5127012;28;20091;-70
2023/06/29 08:23:15;;;;;;;4.03;2.00;;;;;;;23.45;37.85;99179.03;5126820;28;20058;-70
2023/06/29 08:25:42;;;;;;;5.45;2.80;;;;;;;23.77;37.69;99178.13;5126904;28;20050;-70
2023/06/29 08:28:09;;;;;;;4.45;3.38;;;;;;;24.07;37.60;99187.38;5126688;28;20085;-69
2023/06/29 08:30:36;;;;;;;4.45;2.10;;;;;;;23.84;37.36;99183.69;5126695;28;20070;-70
2023/06/29 08:33:03;;;;;;;3.78;2.20;;;;;;;23.88;35.92;99175.06;5126314;28;20059;-71
2023/06/29 08:35:31;;;;;;;2.92;1.92;;;;;;;23.79;35.99;99173.41;5126696;28;20070;-70
2023/06/29 08:37:58;;;;;;;6.57;2.33;;;;;;;24.05;36.35;99173.19;5126744;28;20051;-71
2023/06/29 08:40:28;;;;;;;5.45;2.30;;;;;;;24.20;35.83;99166.00;5126779;28;20050;-71
2023/06/29 08:42:54;;;;;;;4.20;2.20;;;;;;;24.22;35.74;99169.38;5126723;28;20065;-71
2023/06/29 08:45:21;;;;;;;4.05;2.50;;;;;;;24.32;36.33;99145.63;5125211;28;20044;-71
2023/06/29 08:47:51;;;;;;;3.88;2.42;;;;;;;24.56;34.94;99162.78;5125177;28;20050;-71
2023/06/29 08:50:21;;;;;;;4.03;2.03;;;;;;;24.42;35.30;99167.09;5125968;28;20040;-70
2023/06/29 08:52:50;;;;;;;5.20;2.35;;;;;;;23.94;34.38;99173.53;5126192;28;20051;-71
2023/06/29 08:55:17;;;;;;;4.60;2.55;;;;;;;23.83;34.95;99177.44;5126213;28;20039;-71
2023/06/29 08:57:44;;;;;;;8.55;3.78;;;;;;;23.79;35.05;99165.28;5125896;28;20097;-71
2023/06/29 09:00:12;;;;;;;11.40;3.50;;;;;;;24.22;34.73;99168.53;5126309;28;20040;-71
2023/06/29 09:02:39;;;;;;;5.20;2.67;;;;;;;24.15;34.70;99168.41;5126049;28;20051;-71
2023/06/29 09:05:06;;;;;;;4.10;2.03;;;;;;;24.04;34.12;99168.78;5126376;28;20039;-71
2023/06/29 09:07:33;;;;;;;3.35;1.80;;;;;;;24.27;35.37;99160.72;5130307;28;20123;-71
2023/06/29 09:10:04;;;;;;;3.42;2.08;;;;;;;24.59;34.73;99165.97;5129867;28;20043;-71
2023/06/29 09:12:31;;;;;;;3.85;2.17;;;;;;;24.77;34.27;99162.16;5130518;28;20040;-70
2023/06/29 09:14:59;;;;;;;3.67;1.92;;;;;;;24.79;33.89;99157.41;5129241;28;20345;-71
2023/06/29 09:17:33;;;;;;;5.47;2.53;;;;;;;24.80;34.45;99149.09;5129789;28;20048;-71
2023/06/29 09:20:05;;;;;;;3.65;2.05;;;;;;;24.86;33.63;99150.22;5130328;28;20144;-71
2023/06/29 09:22:32;;;;;;;4.75;2.00;;;;;;;24.95;33.05;99146.44;5130041;28;20043;-71
2023/06/29 09:24:59;;;;;;;5.60;2.20;;;;;;;25.31;33.03;99148.53;5129853;28;20050;-70
2023/06/29 09:27:28;;;;;;;4.97;2.00;;;;;;;25.25;33.48;99145.53;5129942;28;20063;-71
2023/06/29 09:29:56;;;;;;;5.07;2.33;;;;;;;24.31;32.78;98975.22;5130082;28;20046;-71
2023/06/29 09:32:23;;;;;;;3.20;2.10;;;;;;;25.56;32.86;99142.72;5128463;28;20223;-71
2023/06/29 09:34:50;;;;;;;4.03;2.72;;;;;;;25.60;32.60;99148.63;5129746;28;20047;-71
2023/06/29 09:37:17;;;;;;;4.07;2.20;;;;;;;25.75;32.62;99140.47;5129694;28;20065;-71
2023/06/29 09:39:58;;;;;;;3.10;2.10;;;;;;;25.91;32.10;99135.69;5129729;28;20101;-71
2023/06/29 09:42:25;;;;;;;3.40;2.08;;;;;;;25.99;32.21;99142.09;5129619;28;20215;-71
2023/06/29 09:44:53;;;;;;;3.83;1.98;;;;;;;25.53;31.41;99137.66;5129454;28;20048;-71
2023/06/29 09:47:20;;;;;;;3.33;2.03;;;;;;;25.63;31.80;99140.09;5129219;28;20292;-71
2023/06/29 09:49:48;;;;;;;3.17;2.03;;;;;;;25.47;31.64;99130.25;5130365;28;20059;-71
2023/06/29 09:52:16;;;;;;;4.03;2.22;;;;;;;25.79;31.81;99139.06;5129713;28;20047;-71
2023/06/29 09:54:43;;;;;;;4.00;2.20;;;;;;;25.95;31.70;99130.75;5129075;28;20089;-71
2023/06/29 09:57:11;;;;;;;3.53;2.15;;;;;;;25.91;31.34;99129.44;5129243;28;20048;-71
2023/06/29 09:59:38;;;;;;;4.65;3.50;;;;;;;25.68;30.99;99129.53;5128976;28;20085;-71
2023/06/29 10:02:08;;;;;;;5.20;2.90;;;;;;;25.67;31.63;99127.84;5128968;28;20044;-71
2023/06/29 10:04:35;;;;;;;4.85;2.30;;;;;;;25.80;31.05;99136.16;5129240;28;20111;-71
2023/06/29 10:07:05;;;;;;;3.08;2.25;;;;;;;25.98;31.60;99129.56;5128557;28;20211;-71
2023/06/29 10:09:36;;;;;;;5.22;3.60;;;;;;;26.00;30.90;99128.34;5129059;28;20051;-71
2023/06/29 10:12:04;;;;;;;4.30;2.75;;;;;;;25.99;31.12;99132.06;5129084;28;20057;-71
2023/06/29 10:14:33;;;;;;;3.97;2.20;;;;;;;26.07;31.34;99126.53;5128854;28;20031;-70
2023/06/29 10:17:02;;;;;;;5.28;2.40;;;;;;;26.07;31.88;99112.97;5127909;28;20047;-71
2023/06/29 10:19:33;;;;;;;3.25;1.90;;;;;;;26.07;31.12;99120.28;5128825;28;20312;-71
2023/06/29 10:22:04;;;;;;;6.00;2.35;;;;;;;25.64;31.62;99059.53;5128778;28;20093;-71
2023/06/29 10:24:35;;;;;;;3.22;2.03;;;;;;;26.21;31.14;99112.09;5128474;28;20047;-71
2023/06/29 10:27:03;;;;;;;6.75;2.35;;;;;;;26.29;31.69;99115.72;5128682;28;20051;-71
2023/06/29 10:29:30;;;;;;;5.43;2.40;;;;;;;26.00;31.25;99112.03;5128679;28;20043;-71
2023/06/29 10:31:58;;;;;;;3.17;1.98;;;;;;;26.07;32.26;99117.56;5128383;28;20123;-71
2023/06/29 10:34:25;;;;;;;3.22;2.05;;;;;;;26.16;31.92;99100.97;5127434;28;20089;-71
2023/06/29 10:36:59;;;;;;;3.13;1.85;;;;;;;26.01;31.41;99100.16;5128571;28;20054;-71
2023/06/29 10:39:43;;;;;;;3.25;1.90;;;;;;;25.71;31.15;99088.44;5128755;28;20108;-71
2023/06/29 10:42:12;;;;;;;2.95;1.77;;;;;;;25.81;31.33;99097.13;5128440;28;20099;-71
2023/06/29 10:44:39;;;;;;;7.30;2.30;;;;;;;25.68;32.09;99083.38;5127098;28;20059;-71
2023/06/29 10:47:07;;;;;;;3.35;2.00;;;;;;;26.01;32.09;99097.44;5127666;28;20323;-69
2023/06/29 10:49:34;;;;;;;4.85;2.90;;;;;;;26.28;31.81;99097.75;5128224;28;20051;-71
2023/06/29 10:52:04;;;;;;;4.13;2.10;;;;;;;26.16;31.71;99083.81;5127025;28;20048;-70
2023/06/29 10:54:31;;;;;;;4.43;2.70;;;;;;;26.26;31.22;99084.34;5128166;28;20214;-71
2023/06/29 10:56:59;;;;;;;4.53;3.05;;;;;;;26.20;31.73;99085.97;5128102;28;20040;-71
2023/06/29 10:59:27;;;;;;;3.78;2.80;;;;;;;26.34;32.48;99091.56;5128294;28;20055;-71
2023/06/29 11:01:55;;;;;;;3.72;2.88;;;;;;;26.46;30.89;99087.28;5128379;28;20296;-71
2023/06/29 11:04:23;;;;;;;4.20;2.25;;;;;;;26.30;30.64;99074.78;5127729;28;20044;-71
2023/06/29 11:06:49;;;;;;;6.07;2.80;;;;;;;26.24;30.12;99078.28;5127662;28;20343;-71
2023/06/29 11:09:19;;;;;;;5.18;2.70;;;;;;;26.32;30.30;99074.59;5127898;28;20093;-71
2023/06/29 11:11:47;;;;;;;4.95;2.40;;;;;;;26.11;30.06;99073.53;5127678;28;20054;-71
2023/06/29 11:14:14;;;;;;;3.88;2.63;;;;;;;26.30;30.20;99058.50;5127865;28;20051;-71
2023/06/29 11:16:41;;;;;;;4.70;2.42;;;;;;;26.38;30.38;99063.81;5127836;28;20050;-71
2023/06/29 11:19:08;;;;;;;4.38;3.42;;;;;;;26.44;30.43;99062.19;5127898;28;20047;-71
2023/06/29 11:21:35;;;;;;;4.43;3.08;;;;;;;26.58;30.59;99064.00;5127323;28;20047;-72
2023/06/29 11:24:02;;;;;;;5.93;3.97;;;;;;;26.65;30.57;99042.34;5127783;28;20043;-72
2023/06/29 11:26:30;;;;;;;3.70;2.80;;;;;;;26.61;30.14;99049.22;5127423;28;20043;-72
2023/06/29 11:28:57;;;;;;;5.57;3.00;;;;;;;26.55;30.47;99039.94;5127390;28;20052;-72
2023/06/29 11:31:25;;;;;;;3.80;2.28;;;;;;;26.38;30.56;99036.63;5127559;28;20088;-72
2023/06/29 11:33:53;;;;;;;4.88;2.40;;;;;;;26.42;31.48;99037.94;5127004;28;20048;-72
2023/06/29 11:36:28;;;;;;;5.50;3.20;;;;;;;26.79;31.33;99034.13;5127378;28;20128;-72